^^
Daily Summary for June 19, 2021 Units:  English    Metric   Both
Daily Weekly Monthly Yearly Custom
  High: Low: Average:
Temperature: 105.0 °F 71.0 °F 87.1 °F
Dew Point: 53.0 °F 37.0 °F 45.2 °F
Humidity: 49% 12% 27%
Wind Speed: 16mph 0mph 2.8mph
Wind Gust: 16mph - -
Wind- - SSW
Pressure: 29.8 in 29.7 in -
Precipitation: 0.000 in    
Historical Graphs
 
 
Tabular Data for June 19, 2021
Time Temperature Dew Point Pressure Wind Wind Speed Wind Gust Humidity Rainfall Rate (Hourly) solar
00:04 77.0 °F 46.0 °F 29.8 in Calm     33% 0.000 in 0.00 W/m2
00:08 77.0 °F 44.0 °F 29.7 in Calm     31% 0.000 in 0.00 W/m2
00:14 77.0 °F 45.0 °F 29.7 in Calm     32% 0.000 in 0.00 W/m2
00:19 77.0 °F 47.0 °F 29.7 in Calm     35% 0.000 in 0.00 W/m2
00:24 77.0 °F 44.0 °F 29.7 in Calm     32% 0.000 in 0.00 W/m2
00:29 76.0 °F 44.0 °F 29.7 in Calm     32% 0.000 in 0.00 W/m2
00:34 76.0 °F 44.0 °F 29.7 in Calm     32% 0.000 in 0.00 W/m2
00:39 76.0 °F 45.0 °F 29.7 in Calm     33% 0.000 in 0.00 W/m2
00:44 76.0 °F 45.0 °F 29.7 in Calm     34% 0.000 in 0.00 W/m2
00:49 76.0 °F 45.0 °F 29.7 in Calm     33% 0.000 in 0.00 W/m2
00:54 76.0 °F 44.0 °F 29.7 in Calm     33% 0.000 in 0.00 W/m2
00:59 75.0 °F 44.0 °F 29.7 in Calm     33% 0.000 in 0.00 W/m2
01:04 75.0 °F 44.0 °F 29.7 in Calm     33% 0.000 in 0.00 W/m2
01:09 75.0 °F 45.0 °F 29.7 in Calm     34% 0.000 in 0.00 W/m2
01:14 75.0 °F 47.0 °F 29.7 in Calm     37% 0.000 in 0.00 W/m2
01:19 75.0 °F 46.0 °F 29.7 in Calm     36% 0.000 in 0.00 W/m2
01:24 74.0 °F 45.0 °F 29.7 in Calm     35% 0.000 in 0.00 W/m2
01:29 74.0 °F 46.0 °F 29.7 in Calm     37% 0.000 in 0.00 W/m2
01:34 74.0 °F 45.0 °F 29.7 in Calm     35% 0.000 in 0.00 W/m2
01:39 74.0 °F 45.0 °F 29.7 in Calm     36% 0.000 in 0.00 W/m2
01:44 74.0 °F 44.0 °F 29.7 in Calm     34% 0.000 in 0.00 W/m2
01:49 74.0 °F 44.0 °F 29.7 in Calm     35% 0.000 in 0.00 W/m2
01:54 74.0 °F 44.0 °F 29.7 in Calm     35% 0.000 in 0.00 W/m2
01:59 73.0 °F 45.0 °F 29.7 in Calm     37% 0.000 in 0.00 W/m2
02:04 73.0 °F 45.0 °F 29.7 in Calm     36% 0.000 in 0.00 W/m2
02:09 73.0 °F 44.0 °F 29.7 in Calm     35% 0.000 in 0.00 W/m2
02:14 73.0 °F 43.0 °F 29.7 in Calm     34% 0.000 in 0.00 W/m2
02:19 73.0 °F 43.0 °F 29.7 in Calm     34% 0.000 in 0.00 W/m2
02:24 73.0 °F 43.0 °F 29.7 in Calm     34% 0.000 in 0.00 W/m2
02:29 73.0 °F 44.0 °F 29.7 in Calm     35% 0.000 in 0.00 W/m2
02:34 73.0 °F 44.0 °F 29.7 in Calm     35% 0.000 in 0.00 W/m2
02:39 73.0 °F 43.0 °F 29.7 in Calm     35% 0.000 in 0.00 W/m2
02:44 73.0 °F 43.0 °F 29.7 in Calm     35% 0.000 in 0.00 W/m2
02:49 72.0 °F 43.0 °F 29.7 in Calm     35% 0.000 in 0.00 W/m2
02:54 72.0 °F 44.0 °F 29.7 in Calm     36% 0.000 in 0.00 W/m2
02:59 72.0 °F 44.0 °F 29.7 in Calm     37% 0.000 in 0.00 W/m2
03:04 72.0 °F 44.0 °F 29.7 in Calm     37% 0.000 in 0.00 W/m2
03:09 72.0 °F 44.0 °F 29.7 in Calm     36% 0.000 in 0.00 W/m2
03:14 72.0 °F 44.0 °F 29.7 in Calm     37% 0.000 in 0.00 W/m2
03:19 72.0 °F 44.0 °F 29.7 in Calm     37% 0.000 in 0.00 W/m2
03:24 72.0 °F 44.0 °F 29.7 in Calm     37% 0.000 in 0.00 W/m2
03:29 72.0 °F 44.0 °F 29.7 in Calm     37% 0.000 in 0.00 W/m2
03:34 72.0 °F 44.0 °F 29.7 in Calm     37% 0.000 in 0.00 W/m2
03:39 72.0 °F 43.0 °F 29.7 in Calm     36% 0.000 in 0.00 W/m2
03:44 72.0 °F 45.0 °F 29.7 in Calm     38% 0.000 in 0.00 W/m2
03:49 72.0 °F 45.0 °F 29.7 in Calm     39% 0.000 in 0.00 W/m2
03:54 71.0 °F 45.0 °F 29.7 in Calm     38% 0.000 in 0.00 W/m2
03:59 71.0 °F 46.0 °F 29.7 in Calm     40% 0.000 in 0.00 W/m2
04:04 71.0 °F 44.0 °F 29.7 in Calm     38% 0.000 in 0.00 W/m2
04:09 71.0 °F 44.0 °F 29.7 in Calm     38% 0.000 in 0.00 W/m2
04:14 71.0 °F 44.0 °F 29.7 in Calm     38% 0.000 in 0.00 W/m2
04:19 71.0 °F 44.0 °F 29.7 in Calm     37% 0.000 in 0.00 W/m2
04:24 71.0 °F 44.0 °F 29.7 in Calm     37% 0.000 in 0.00 W/m2
04:29 71.0 °F 44.0 °F 29.7 in Calm     37% 0.000 in 0.00 W/m2
04:34 71.0 °F 44.0 °F 29.7 in Calm     37% 0.000 in 0.00 W/m2
04:39 71.0 °F 44.0 °F 29.7 in Calm     37% 0.000 in 0.00 W/m2
04:44 71.0 °F 44.0 °F 29.7 in Calm     38% 0.000 in 0.00 W/m2
04:49 71.0 °F 44.0 °F 29.7 in Calm     38% 0.000 in 0.00 W/m2
04:54 71.0 °F 46.0 °F 29.7 in Calm     40% 0.000 in 0.00 W/m2
04:59 71.0 °F 46.0 °F 29.7 in Calm     40% 0.000 in 0.00 W/m2
05:04 71.0 °F 46.0 °F 29.7 in Calm     41% 0.000 in 0.00 W/m2
05:09 71.0 °F 46.0 °F 29.7 in Calm     40% 0.000 in 0.00 W/m2
05:14 71.0 °F 46.0 °F 29.7 in Calm     40% 0.000 in 0.00 W/m2
05:19 71.0 °F 46.0 °F 29.7 in Calm     40% 0.000 in 0.00 W/m2
05:24 71.0 °F 46.0 °F 29.7 in Calm     41% 0.000 in 0.00 W/m2
05:29 71.0 °F 46.0 °F 29.7 in Calm     41% 0.000 in 0.00 W/m2
05:34 71.0 °F 46.0 °F 29.7 in Calm     41% 0.000 in 0.00 W/m2
05:39 71.0 °F 47.0 °F 29.7 in Calm     42% 0.000 in 0.00 W/m2
05:44 71.0 °F 48.0 °F 29.7 in Calm     45% 0.000 in 0.00 W/m2
05:49 71.0 °F 47.0 °F 29.7 in Calm     43% 0.000 in 5.00 W/m2
05:54 71.0 °F 47.0 °F 29.7 in Calm     42% 0.000 in 7.00 W/m2
05:59 71.0 °F 45.0 °F 29.7 in Calm     40% 0.000 in 11.00 W/m2
06:04 71.0 °F 46.0 °F 29.8 in Calm     41% 0.000 in 12.00 W/m2
06:09 71.0 °F 46.0 °F 29.8 in Calm     42% 0.000 in 14.00 W/m2
06:14 71.0 °F 45.0 °F 29.8 in Calm     40% 0.000 in 16.00 W/m2
06:19 71.0 °F 45.0 °F 29.8 in Calm     40% 0.000 in 18.00 W/m2
06:24 71.0 °F 45.0 °F 29.8 in Calm     40% 0.000 in 18.00 W/m2
06:29 71.0 °F 46.0 °F 29.8 in Calm     41% 0.000 in 18.00 W/m2
06:34 71.0 °F 46.0 °F 29.8 in Calm     41% 0.000 in 19.00 W/m2
06:39 71.0 °F 46.0 °F 29.8 in Calm     41% 0.000 in 21.00 W/m2
06:44 71.0 °F 46.0 °F 29.8 in Calm     42% 0.000 in 23.00 W/m2
06:49 71.0 °F 46.0 °F 29.8 in Calm     42% 0.000 in 25.00 W/m2
06:54 71.0 °F 47.0 °F 29.8 in Calm     43% 0.000 in 26.00 W/m2
06:59 71.0 °F 46.0 °F 29.8 in Calm     42% 0.000 in 30.00 W/m2
07:04 71.0 °F 47.0 °F 29.8 in Calm     43% 0.000 in 32.00 W/m2
07:09 71.0 °F 48.0 °F 29.8 in Calm     44% 0.000 in 33.00 W/m2
07:14 71.0 °F 49.0 °F 29.8 in Calm     46% 0.000 in 35.00 W/m2
07:19 71.0 °F 49.0 °F 29.8 in Calm     46% 0.000 in 37.00 W/m2
07:24 71.0 °F 50.0 °F 29.8 in Calm     47% 0.000 in 39.00 W/m2
07:29 71.0 °F 50.0 °F 29.8 in Calm     47% 0.000 in 42.00 W/m2
07:34 71.0 °F 49.0 °F 29.8 in Calm     46% 0.000 in 44.00 W/m2
07:39 71.0 °F 50.0 °F 29.8 in Calm     48% 0.000 in 44.00 W/m2
07:44 71.0 °F 51.0 °F 29.8 in Calm     49% 0.000 in 47.00 W/m2
07:49 71.0 °F 51.0 °F 29.8 in Calm     49% 0.000 in 51.00 W/m2
07:54 72.0 °F 50.0 °F 29.8 in Calm     47% 0.000 in 53.00 W/m2
07:59 72.0 °F 49.0 °F 29.8 in Calm     45% 0.000 in 54.00 W/m2
08:03 72.0 °F 50.0 °F 29.8 in Calm     46% 0.000 in 56.00 W/m2
08:09 73.0 °F 50.0 °F 29.8 in Calm     45% 0.000 in 197.00 W/m2
08:14 73.0 °F 50.0 °F 29.8 in Calm     45% 0.000 in 60.00 W/m2
08:19 73.0 °F 49.0 °F 29.8 in Calm     43% 0.000 in 67.00 W/m2
08:24 74.0 °F 50.0 °F 29.8 in Calm     43% 0.000 in 102.00 W/m2
08:29 75.0 °F 51.0 °F 29.8 in Calm     44% 0.000 in 155.00 W/m2
08:34 75.0 °F 52.0 °F 29.8 in Calm     45% 0.000 in 111.00 W/m2
08:39 76.0 °F 53.0 °F 29.8 in Calm     45% 0.000 in 137.00 W/m2
08:44 76.0 °F 52.0 °F 29.8 in SSW 2 mph   44% 0.000 in 487.00 W/m2
08:49 77.0 °F 52.0 °F 29.8 in Calm   2 mph 43% 0.000 in 496.00 W/m2
08:54 78.0 °F 53.0 °F 29.8 in Calm     42% 0.000 in 512.00 W/m2
08:59 78.0 °F 52.0 °F 29.8 in Calm     41% 0.000 in 526.00 W/m2
09:04 79.0 °F 52.0 °F 29.8 in SSW 2 mph   40% 0.000 in 548.00 W/m2
09:09 80.0 °F 52.0 °F 29.8 in SSW 2 mph 2 mph 38% 0.000 in 564.00 W/m2
09:14 81.0 °F 50.0 °F 29.8 in SW 4 mph 2 mph 35% 0.000 in 577.00 W/m2
09:19 82.0 °F 49.0 °F 29.8 in SW 2 mph 3 mph 33% 0.000 in 585.00 W/m2
09:24 83.0 °F 49.0 °F 29.8 in SW 2 mph 2 mph 31% 0.000 in 605.00 W/m2
09:29 84.0 °F 49.0 °F 29.8 in SW 2 mph 2 mph 30% 0.000 in 624.00 W/m2
09:34 84.0 °F 49.0 °F 29.8 in Calm   2 mph 29% 0.000 in 636.00 W/m2
09:39 85.0 °F 49.0 °F 29.8 in SW 2 mph   30% 0.000 in 652.00 W/m2
09:44 86.0 °F 50.0 °F 29.8 in SSW 2 mph 2 mph 29% 0.000 in 659.00 W/m2
09:49 87.0 °F 49.0 °F 29.8 in SSW 2 mph 2 mph 28% 0.000 in 670.00 W/m2
09:54 87.0 °F 47.0 °F 29.8 in SSW 2 mph 2 mph 25% 0.000 in 679.00 W/m2
09:59 88.0 °F 47.0 °F 29.8 in SSW 2 mph   25% 0.000 in 700.00 W/m2
10:04 88.0 °F 46.0 °F 29.8 in SSW 2 mph 2 mph 24% 0.000 in 710.00 W/m2
10:09 89.0 °F 45.0 °F 29.8 in SSW 2 mph 2 mph 22% 0.000 in 726.00 W/m2
10:14 90.0 °F 46.0 °F 29.8 in SE 2 mph 2 mph 22% 0.000 in 737.00 W/m2
10:19 90.0 °F 45.0 °F 29.8 in SE 2 mph 2 mph 21% 0.000 in 749.00 W/m2
10:24 91.0 °F 45.0 °F 29.8 in SE 2 mph 2 mph 21% 0.000 in 768.00 W/m2
10:29 91.0 °F 49.0 °F 29.8 in ESE 4 mph 2 mph 24% 0.000 in 777.00 W/m2
10:34 92.0 °F 43.0 °F 29.8 in South 4 mph 3 mph 19% 0.000 in 789.00 W/m2
10:39 92.0 °F 44.0 °F 29.8 in South 2 mph 3 mph 19% 0.000 in 798.00 W/m2
10:44 93.0 °F 46.0 °F 29.8 in South 2 mph 2 mph 20% 0.000 in 805.00 W/m2
10:49 93.0 °F 46.0 °F 29.8 in South 2 mph 2 mph 20% 0.000 in 819.00 W/m2
10:54 93.0 °F 44.0 °F 29.8 in South 2 mph 2 mph 18% 0.000 in 826.00 W/m2
10:59 94.0 °F 45.0 °F 29.8 in WNW 2 mph 2 mph 19% 0.000 in 842.00 W/m2
11:04 94.0 °F 45.0 °F 29.8 in SSW 9 mph 9 mph 19% 0.000 in 851.00 W/m2
11:09 94.0 °F 46.0 °F 29.8 in SW 6 mph 9 mph 19% 0.000 in 860.00 W/m2
11:14 95.0 °F 43.0 °F 29.8 in SW 6 mph 6 mph 17% 0.000 in 867.00 W/m2
11:19 95.0 °F 45.0 °F 29.8 in WSW 2 mph 6 mph 18% 0.000 in 872.00 W/m2
11:24 95.0 °F 45.0 °F 29.8 in WSW 5 mph 3 mph 18% 0.000 in 877.00 W/m2
11:29 95.0 °F 44.0 °F 29.8 in SSW 6 mph 6 mph 17% 0.000 in 888.00 W/m2
11:34 96.0 °F 47.0 °F 29.8 in SSE 2 mph 3 mph 19% 0.000 in 895.00 W/m2
11:39 96.0 °F 44.0 °F 29.8 in South 4 mph 3 mph 17% 0.000 in 902.00 W/m2
11:44 96.0 °F 43.0 °F 29.8 in SSW 2 mph 3 mph 16% 0.000 in 909.00 W/m2
11:49 97.0 °F 45.0 °F 29.8 in SW 4 mph 2 mph 17% 0.000 in 914.00 W/m2
11:54 97.0 °F 46.0 °F 29.8 in SW 4 mph 3 mph 18% 0.000 in 921.00 W/m2
11:59 97.0 °F 43.0 °F 29.8 in WSW 4 mph 3 mph 16% 0.000 in 925.00 W/m2
12:04 97.0 °F 44.0 °F 29.8 in SSE 7 mph 3 mph 16% 0.000 in 930.00 W/m2
12:09 98.0 °F 42.0 °F 29.8 in WSW 4 mph 7 mph 15% 0.000 in 933.00 W/m2
12:14 98.0 °F 44.0 °F 29.8 in WSW 9 mph 4 mph 16% 0.000 in 937.00 W/m2
12:19 98.0 °F 42.0 °F 29.8 in WSW 6 mph 9 mph 15% 0.000 in 942.00 W/m2
12:24 98.0 °F 44.0 °F 29.8 in WSW 7 mph 6 mph 16% 0.000 in 944.00 W/m2
12:29 98.0 °F 43.0 °F 29.8 in SW 6 mph 7 mph 15% 0.000 in 947.00 W/m2
12:34 98.0 °F 44.0 °F 29.8 in SSW 6 mph 6 mph 16% 0.000 in 951.00 W/m2
12:39 99.0 °F 43.0 °F 29.8 in WSW 9 mph 6 mph 15% 0.000 in 953.00 W/m2
12:44 99.0 °F 45.0 °F 29.8 in ENE 6 mph 9 mph 16% 0.000 in 953.00 W/m2
12:49 99.0 °F 43.0 °F 29.8 in SE 4 mph 6 mph 15% 0.000 in 954.00 W/m2
12:54 100.0 °F 42.0 °F 29.8 in SW 6 mph 6 mph 14% 0.000 in 954.00 W/m2
12:59 100.0 °F 40.0 °F 29.8 in SW 6 mph 6 mph 13% 0.000 in 956.00 W/m2
13:04 100.0 °F 40.0 °F 29.8 in SW 4 mph 2 mph 13% 0.000 in 956.00 W/m2
13:09 100.0 °F 41.0 °F 29.8 in West 7 mph 5 mph 13% 0.000 in 956.00 W/m2
13:14 100.0 °F 43.0 °F 29.8 in SW 11 mph 7 mph 14% 0.000 in 958.00 W/m2
13:19 100.0 °F 41.0 °F 29.8 in SSW 9 mph 10 mph 13% 0.000 in 953.00 W/m2
13:24 101.0 °F 43.0 °F 29.8 in SE 4 mph 7 mph 14% 0.000 in 953.00 W/m2
13:29 101.0 °F 43.0 °F 29.8 in SSW 7 mph 3 mph 14% 0.000 in 956.00 W/m2
13:34 102.0 °F 43.0 °F 29.8 in SW 4 mph 7 mph 14% 0.000 in 954.00 W/m2
13:39 102.0 °F 44.0 °F 29.8 in West 6 mph 6 mph 14% 0.000 in 951.00 W/m2
13:44 102.0 °F 44.0 °F 29.8 in SSW 11 mph 6 mph 14% 0.000 in 939.00 W/m2
13:49 102.0 °F 44.0 °F 29.8 in SSW 13 mph 10 mph 14% 0.000 in 933.00 W/m2
13:54 102.0 °F 42.0 °F 29.8 in SW 9 mph 13 mph 13% 0.000 in 925.00 W/m2
13:59 102.0 °F 44.0 °F 29.8 in SSE 4 mph 7 mph 14% 0.000 in 928.00 W/m2
14:04 103.0 °F 42.0 °F 29.8 in SSW 16 mph 11 mph 13% 0.000 in 926.00 W/m2
14:09 103.0 °F 45.0 °F 29.8 in WSW 6 mph 16 mph 14% 0.000 in 921.00 W/m2
14:14 103.0 °F 45.0 °F 29.8 in SW 9 mph 3 mph 14% 0.000 in 905.00 W/m2
14:19 103.0 °F 43.0 °F 29.8 in SW 9 mph 9 mph 13% 0.000 in 902.00 W/m2
14:24 103.0 °F 45.0 °F 29.8 in WSW 7 mph 7 mph 14% 0.000 in 898.00 W/m2
14:29 103.0 °F 45.0 °F 29.8 in SSW 13 mph 10 mph 14% 0.000 in 881.00 W/m2
14:34 103.0 °F 45.0 °F 29.8 in SSW 9 mph 13 mph 14% 0.000 in 877.00 W/m2
14:39 103.0 °F 45.0 °F 29.8 in SSW 9 mph 9 mph 14% 0.000 in 867.00 W/m2
14:44 103.0 °F 44.0 °F 29.8 in SSE 9 mph 5 mph 14% 0.000 in 861.00 W/m2
14:49 103.0 °F 45.0 °F 29.8 in SSW 9 mph 9 mph 14% 0.000 in 854.00 W/m2
14:53 103.0 °F 46.0 °F 29.8 in SW 6 mph 9 mph 15% 0.000 in 846.00 W/m2
14:59 104.0 °F 45.0 °F 29.8 in SW 9 mph 6 mph 14% 0.000 in 840.00 W/m2
15:04 104.0 °F 47.0 °F 29.8 in SW 7 mph 9 mph 15% 0.000 in 831.00 W/m2
15:09 104.0 °F 43.0 °F 29.8 in SW 13 mph 9 mph 13% 0.000 in 821.00 W/m2
15:14 104.0 °F 43.0 °F 29.8 in WSW 9 mph 13 mph 13% 0.000 in 809.00 W/m2
15:19 104.0 °F 45.0 °F 29.7 in SSE 6 mph 9 mph 14% 0.000 in 800.00 W/m2
15:24 104.0 °F 46.0 °F 29.7 in South 11 mph 7 mph 14% 0.000 in 793.00 W/m2
15:29 104.0 °F 44.0 °F 29.7 in South 11 mph 10 mph 13% 0.000 in 780.00 W/m2
15:34 104.0 °F 46.0 °F 29.7 in West 7 mph 10 mph 14% 0.000 in 768.00 W/m2
15:39 105.0 °F 46.0 °F 29.7 in SW 7 mph 7 mph 14% 0.000 in 758.00 W/m2
15:44 105.0 °F 46.0 °F 29.7 in SW 7 mph 7 mph 14% 0.000 in 744.00 W/m2
15:49 105.0 °F 46.0 °F 29.7 in SW 7 mph 7 mph 14% 0.000 in 733.00 W/m2
15:54 105.0 °F 46.0 °F 29.7 in SE 6 mph 6 mph 14% 0.000 in 721.00 W/m2
15:59 105.0 °F 44.0 °F 29.7 in SW 9 mph 7 mph 13% 0.000 in 710.00 W/m2
16:04 105.0 °F 42.0 °F 29.7 in WSW 9 mph 9 mph 12% 0.000 in 698.00 W/m2
16:09 105.0 °F 44.0 °F 29.7 in West 6 mph 9 mph 13% 0.000 in 679.00 W/m2
16:14 105.0 °F 44.0 °F 29.7 in SSW 7 mph 8 mph 13% 0.000 in 668.00 W/m2
16:19 105.0 °F 44.0 °F 29.7 in SW 6 mph 7 mph 13% 0.000 in 649.00 W/m2
16:24 104.0 °F 44.0 °F 29.7 in WSW 9 mph 6 mph 13% 0.000 in 640.00 W/m2
16:29 105.0 °F 46.0 °F 29.7 in West 6 mph 9 mph 14% 0.000 in 629.00 W/m2
16:34 105.0 °F 48.0 °F 29.7 in West 6 mph 6 mph 15% 0.000 in 610.00 W/m2
16:39 105.0 °F 50.0 °F 29.7 in SW 6 mph 3 mph 16% 0.000 in 599.00 W/m2
16:44 105.0 °F 46.0 °F 29.7 in SSW 7 mph 6 mph 14% 0.000 in 585.00 W/m2
16:49 105.0 °F 46.0 °F 29.7 in South 6 mph 7 mph 14% 0.000 in 568.00 W/m2
16:54 105.0 °F 44.0 °F 29.7 in South 9 mph 6 mph 13% 0.000 in 554.00 W/m2
16:59 105.0 °F 44.0 °F 29.7 in SSW 9 mph 9 mph 13% 0.000 in 538.00 W/m2
17:04 105.0 °F 44.0 °F 29.7 in SSW 13 mph 9 mph 13% 0.000 in 524.00 W/m2
17:09 105.0 °F 46.0 °F 29.7 in SSE 4 mph 13 mph 14% 0.000 in 508.00 W/m2
17:14 105.0 °F 46.0 °F 29.7 in South 11 mph 9 mph 14% 0.000 in 494.00 W/m2
17:19 105.0 °F 48.0 °F 29.7 in SW 10 mph 10 mph 15% 0.000 in 478.00 W/m2
17:24 105.0 °F 44.0 °F 29.7 in WSW 2 mph 6 mph 13% 0.000 in 462.00 W/m2
17:29 105.0 °F 48.0 °F 29.7 in SW 2 mph 2 mph 15% 0.000 in 448.00 W/m2
17:34 105.0 °F 48.0 °F 29.7 in SW 2 mph 2 mph 15% 0.000 in 434.00 W/m2
17:39 105.0 °F 46.0 °F 29.7 in SW 6 mph 2 mph 14% 0.000 in 418.00 W/m2
17:44 105.0 °F 44.0 °F 29.7 in SSW 6 mph 6 mph 13% 0.000 in 401.00 W/m2
17:49 105.0 °F 48.0 °F 29.7 in SSW 2 mph 6 mph 15% 0.000 in 385.00 W/m2
17:54 105.0 °F 44.0 °F 29.7 in SSW 4 mph 2 mph 13% 0.000 in 369.00 W/m2
17:59 104.0 °F 44.0 °F 29.7 in SSW 4 mph 3 mph 13% 0.000 in 353.00 W/m2
18:04 104.0 °F 44.0 °F 29.7 in South 7 mph 3 mph 13% 0.000 in 295.00 W/m2
18:09 104.0 °F 49.0 °F 29.7 in SE 7 mph 7 mph 16% 0.000 in 179.00 W/m2
18:14 103.0 °F 49.0 °F 29.7 in SE 4 mph 3 mph 16% 0.000 in 60.00 W/m2
18:19 103.0 °F 48.0 °F 29.7 in SE 4 mph 3 mph 16% 0.000 in 56.00 W/m2
18:24 102.0 °F 46.0 °F 29.7 in SW 6 mph 2 mph 15% 0.000 in 53.00 W/m2
18:29 101.0 °F 46.0 °F 29.7 in West 2 mph 6 mph 16% 0.000 in 49.00 W/m2
18:34 101.0 °F 46.0 °F 29.7 in SW 6 mph 2 mph 16% 0.000 in 46.00 W/m2
18:39 100.0 °F 44.0 °F 29.7 in SW 2 mph 6 mph 15% 0.000 in 42.00 W/m2
18:44 100.0 °F 44.0 °F 29.7 in SW 4 mph 2 mph 15% 0.000 in 42.00 W/m2
18:49 99.0 °F 42.0 °F 29.7 in SW 2 mph 3 mph 14% 0.000 in 40.00 W/m2
18:54 99.0 °F 48.0 °F 29.7 in SW 2 mph 2 mph 18% 0.000 in 49.00 W/m2
18:59 99.0 °F 45.0 °F 29.7 in SW 4 mph 2 mph 16% 0.000 in 49.00 W/m2
19:04 98.0 °F 46.0 °F 29.7 in SW 2 mph 3 mph 17% 0.000 in 49.00 W/m2
19:09 98.0 °F 47.0 °F 29.7 in SSW 2 mph 2 mph 18% 0.000 in 32.00 W/m2
19:14 97.0 °F 42.0 °F 29.7 in SSW 4 mph 2 mph 15% 0.000 in 32.00 W/m2
19:19 97.0 °F 42.0 °F 29.7 in SW 2 mph 3 mph 15% 0.000 in 26.00 W/m2
19:24 97.0 °F 43.0 °F 29.7 in SW 2 mph 2 mph 16% 0.000 in 23.00 W/m2
19:29 96.0 °F 44.0 °F 29.7 in Calm     17% 0.000 in 21.00 W/m2
19:34 96.0 °F 44.0 °F 29.7 in Calm     17% 0.000 in 19.00 W/m2
19:39 95.0 °F 40.0 °F 29.7 in Calm     15% 0.000 in 16.00 W/m2
19:44 95.0 °F 44.0 °F 29.8 in SW 2 mph   18% 0.000 in 16.00 W/m2
19:49 94.0 °F 43.0 °F 29.8 in Calm   2 mph 17% 0.000 in 14.00 W/m2
19:54 94.0 °F 39.0 °F 29.8 in Calm     15% 0.000 in 12.00 W/m2
19:59 93.0 °F 39.0 °F 29.8 in Calm     15% 0.000 in 12.00 W/m2
20:04 93.0 °F 38.0 °F 29.8 in Calm     15% 0.000 in 11.00 W/m2
20:09 92.0 °F 39.0 °F 29.8 in Calm     16% 0.000 in 9.00 W/m2
20:14 91.0 °F 39.0 °F 29.8 in Calm     16% 0.000 in 7.00 W/m2
20:19 90.0 °F 39.0 °F 29.8 in Calm     17% 0.000 in 7.00 W/m2
20:24 90.0 °F 39.0 °F 29.8 in Calm     17% 0.000 in 5.00 W/m2
20:29 89.0 °F 37.0 °F 29.8 in Calm     16% 0.000 in 0.00 W/m2
20:34 89.0 °F 41.0 °F 29.8 in Calm     19% 0.000 in 0.00 W/m2
20:39 88.0 °F 39.0 °F 29.8 in Calm     18% 0.000 in 0.00 W/m2
El Dorado Weather
Compliments of Weather Underground - 2 mb